Time;durP1;ratioP1;P1;durP2;ratioP2;P2;SDS_P1;SDS_P2;PMS_P1;PMS_P2;Temp;Humidity;BMP_temperature;BMP_pressure;BME280_temperature;BME280_humidity;BME280_pressure;Samples;Min_cycle;Max_cycle;Signal;HPM_P1;HPM_P2
2022/12/01 00:01:47;;;;;;;3.57;1.23;;;11.60;99.90;;;;;;5072760;28;20468;-81
2022/12/01 00:04:13;;;;;;;2.07;1.20;;;11.50;99.90;;;;;;5072348;28;20306;-80
2022/12/01 00:06:39;;;;;;;2.97;1.33;;;11.50;99.90;;;;;;5072440;28;20099;-82
2022/12/01 00:11:51;;;;;;;5.35;1.90;;;11.60;99.90;;;;;;5072301;28;20141;-82
2022/12/01 00:14:17;;;;;;;4.40;1.40;;;11.50;99.90;;;;;;5072764;28;20105;-82
2022/12/01 00:16:45;;;;;;;5.93;1.77;;;11.50;99.90;;;;;;5072132;28;20025;-80
2022/12/01 00:19:11;;;;;;;4.13;1.63;;;11.40;99.90;;;;;;5054456;28;20285;-81
2022/12/01 00:21:37;;;;;;;2.80;1.50;;;11.40;99.90;;;;;;5072231;28;20028;-81
2022/12/01 00:24:03;;;;;;;5.25;1.88;;;11.30;99.90;;;;;;5071750;28;20361;-80
2022/12/01 00:26:30;;;;;;;4.20;1.67;;;11.40;99.90;;;;;;5071579;28;20031;-81
2022/12/01 00:28:58;;;;;;;6.35;1.75;;;11.30;99.90;;;;;;5053898;28;20037;-83
2022/12/01 00:31:24;;;;;;;3.45;1.70;;;11.30;99.90;;;;;;5071946;28;20167;-81
2022/12/01 00:33:51;;;;;;;3.47;1.88;;;11.50;99.90;;;;;;5071741;28;20089;-81
2022/12/01 00:36:31;;;;;;;3.50;1.50;;;11.50;99.90;;;;;;5071389;28;20519;-82
2022/12/01 00:38:58;;;;;;;3.97;1.70;;;11.60;99.90;;;;;;5071806;28;20025;-81
2022/12/01 00:41:25;;;;;;;3.58;1.77;;;11.60;99.90;;;;;;5071826;28;20028;-82
2022/12/01 00:43:51;;;;;;;3.15;1.67;;;11.50;99.90;;;;;;5071255;28;20075;-82
2022/12/01 00:46:18;;;;;;;3.75;1.65;;;11.40;99.90;;;;;;5071378;28;20104;-81
2022/12/01 00:48:44;;;;;;;;;;;11.40;99.90;;;;;;5071827;28;20023;-81
2022/12/01 00:51:13;;;;;;;4.00;2.42;;;11.40;99.90;;;;;;5071750;28;20276;-81
2022/12/01 00:53:39;;;;;;;3.35;1.50;;;11.30;99.90;;;;;;5070547;28;20028;-82
2022/12/01 00:56:05;;;;;;;6.53;2.30;;;11.30;99.90;;;;;;5053449;28;20476;-81
2022/12/01 00:58:32;;;;;;;3.70;1.65;;;11.30;99.90;;;;;;5071497;28;20021;-81
2022/12/01 01:01:00;;;;;;;6.00;1.97;;;11.30;99.90;;;;;;5072086;28;20479;-82
2022/12/01 01:03:26;;;;;;;4.78;2.20;;;11.30;99.90;;;;;;5071719;28;20361;-82
2022/12/01 01:05:52;;;;;;;3.38;1.70;;;11.30;99.90;;;;;;5072896;28;20029;-82
2022/12/01 01:08:18;;;;;;;4.63;1.80;;;11.30;99.90;;;;;;5059641;28;20017;-81
2022/12/01 01:10:47;;;;;;;4.18;1.90;;;11.30;99.90;;;;;;5089804;28;20029;-80
2022/12/01 01:13:14;;;;;;;4.88;1.92;;;11.40;99.90;;;;;;5080052;28;20473;-81
2022/12/01 01:15:40;;;;;;;4.68;2.10;;;11.30;99.90;;;;;;5071414;28;20029;-81
2022/12/01 01:18:08;;;;;;;3.75;1.65;;;11.20;99.90;;;;;;5052844;28;20031;-81
2022/12/01 01:20:34;;;;;;;4.30;1.77;;;11.20;99.90;;;;;;5053100;28;20035;-80
2022/12/01 01:23:00;;;;;;;3.87;1.77;;;11.20;99.90;;;;;;5052972;28;20031;-81
2022/12/01 01:25:26;;;;;;;4.13;1.93;;;11.20;99.90;;;;;;5071624;28;20193;-82
2022/12/01 01:27:52;;;;;;;4.33;2.03;;;11.10;99.90;;;;;;5071590;28;20028;-81
2022/12/01 01:30:18;;;;;;;7.15;3.03;;;11.10;99.90;;;;;;5071165;28;20107;-81
2022/12/01 01:32:45;;;;;;;4.10;1.70;;;11.10;99.90;;;;;;5071105;28;20074;-81
2022/12/01 01:35:26;;;;;;;4.00;2.00;;;11.10;99.90;;;;;;5071038;28;20045;-82
2022/12/01 01:37:52;;;;;;;3.05;1.60;;;11.10;99.90;;;;;;5071086;28;20060;-81
2022/12/01 01:40:18;;;;;;;5.40;1.93;;;11.10;99.90;;;;;;5071307;28;20101;-81
2022/12/01 01:42:44;;;;;;;3.97;2.00;;;11.10;99.90;;;;;;5070764;28;20035;-82
2022/12/01 01:45:25;;;;;;;4.17;2.03;;;11.10;99.90;;;;;;5052685;28;20029;-81
2022/12/01 01:47:59;;;;;;;3.10;1.70;;;11.10;99.90;;;;;;5071126;28;20337;-82
2022/12/01 01:50:29;;;;;;;4.65;1.88;;;11.20;99.90;;;;;;5070870;28;20112;-81
2022/12/01 01:53:02;;;;;;;4.22;1.77;;;11.20;99.90;;;;;;5070784;28;20020;-80
2022/12/01 01:55:31;;;;;;;3.45;1.90;;;11.30;99.90;;;;;;5071252;28;20108;-81
2022/12/01 01:58:06;;;;;;;5.80;2.22;;;11.30;99.90;;;;;;5052469;28;20028;-82
2022/12/01 02:00:32;;;;;;;2.92;1.88;;;11.30;99.90;;;;;;5071013;28;20023;-82
2022/12/01 02:03:02;;;;;;;2.27;1.50;;;11.30;99.90;;;;;;5071309;28;20468;-81
2022/12/01 02:05:33;;;;;;;4.10;1.80;;;11.30;99.90;;;;;;5053844;28;20132;-81
2022/12/01 02:08:03;;;;;;;5.07;1.80;;;11.30;99.90;;;;;;5074386;28;20025;-82
2022/12/01 02:10:59;;;;;;;3.03;1.80;;;11.30;99.90;;;;;;5074415;28;20060;-82
2022/12/01 02:13:49;;;;;;;3.83;1.80;;;11.20;99.90;;;;;;5074479;28;20036;-81
2022/12/01 02:16:36;;;;;;;3.17;1.83;;;11.20;99.90;;;;;;5074118;28;20028;-82
2022/12/01 02:19:08;;;;;;;4.18;2.00;;;11.20;99.90;;;;;;5055874;28;20055;-82
2022/12/01 02:22:13;;;;;;;3.67;1.80;;;11.20;99.90;;;;;;5074131;28;20315;-82
2022/12/01 02:25:08;;;;;;;3.78;1.80;;;11.30;99.90;;;;;;5070225;28;20222;-82
2022/12/01 02:27:42;;;;;;;4.50;1.83;;;11.40;99.90;;;;;;5074146;28;20381;-81
2022/12/01 02:30:25;;;;;;;7.40;2.17;;;11.30;99.90;;;;;;5074427;28;20360;-82
2022/12/01 02:33:19;;;;;;;3.67;1.90;;;11.30;99.90;;;;;;5074041;28;20357;-81
2022/12/01 02:35:55;;;;;;;3.38;1.88;;;11.40;99.90;;;;;;5038127;28;20044;-81
2022/12/01 02:38:47;;;;;;;5.32;2.03;;;11.40;99.90;;;;;;5074202;28;20036;-82
2022/12/01 02:41:28;;;;;;;3.50;1.73;;;11.40;99.90;;;;;;5073880;28;20370;-82
2022/12/01 02:44:12;;;;;;;5.22;2.03;;;11.50;99.90;;;;;;5073853;28;20110;-81
2022/12/01 02:46:51;;;;;;;3.55;1.80;;;11.60;99.90;;;;;;5074454;28;20126;-82
2022/12/01 02:49:29;;;;;;;4.45;2.15;;;11.50;99.90;;;;;;5074187;28;20028;-81
2022/12/01 02:51:57;;;;;;;5.20;1.90;;;11.50;99.90;;;;;;5073550;28;20025;-81
2022/12/01 02:54:27;;;;;;;3.78;2.20;;;11.40;99.90;;;;;;5073629;28;20021;-81
2022/12/01 02:56:55;;;;;;;3.40;2.05;;;11.40;99.90;;;;;;5073883;28;20104;-81
2022/12/01 02:59:21;;;;;;;3.78;2.05;;;11.30;99.90;;;;;;5073504;28;20122;-82
2022/12/01 03:02:11;;;;;;;5.75;2.10;;;11.30;99.90;;;;;;5073659;28;20024;-81
2022/12/01 03:05:00;;;;;;;4.28;2.15;;;11.30;99.90;;;;;;5073353;28;20142;-81
2022/12/01 03:08:13;;;;;;;4.53;2.58;;;11.30;99.90;;;;;;5055192;28;20032;-82
2022/12/01 03:10:44;;;;;;;4.45;2.10;;;11.30;99.90;;;;;;4991712;28;20122;-82
2022/12/01 03:13:29;;;;;;;4.22;2.30;;;11.30;99.90;;;;;;4991963;28;20411;-80
2022/12/01 03:16:23;;;;;;;3.90;2.00;;;11.30;99.90;;;;;;4991884;28;20045;-81
2022/12/01 03:18:59;;;;;;;4.18;2.10;;;11.40;99.90;;;;;;4970500;28;20348;-82
2022/12/01 03:21:34;;;;;;;4.03;1.90;;;11.40;99.90;;;;;;4991746;28;20361;-82
2022/12/01 03:24:07;;;;;;;3.97;2.00;;;11.40;99.90;;;;;;4991311;28;20030;-83
2022/12/01 03:26:35;;;;;;;5.65;2.15;;;11.50;99.90;;;;;;4991698;28;20034;-82
2022/12/01 03:29:11;;;;;;;3.97;2.08;;;11.60;99.90;;;;;;4975081;28;20034;-82
2022/12/01 03:31:44;;;;;;;4.53;1.90;;;11.70;99.90;;;;;;4991349;28;20053;-81
2022/12/01 03:34:13;;;;;;;6.28;2.40;;;11.70;99.90;;;;;;4974824;28;20089;-81
2022/12/01 03:36:53;;;;;;;6.82;4.20;;;11.70;99.90;;;;;;4990780;28;20050;-81
2022/12/01 03:39:25;;;;;;;8.93;4.90;;;11.70;99.90;;;;;;4975074;28;20120;-81
2022/12/01 03:41:59;;;;;;;9.30;4.82;;;11.70;99.90;;;;;;5052409;28;20045;-82
2022/12/01 03:44:36;;;;;;;7.10;4.15;;;11.70;99.90;;;;;;5072798;28;20036;-82
2022/12/01 03:47:11;;;;;;;6.28;3.35;;;11.70;99.90;;;;;;5072607;28;20032;-81
2022/12/01 03:49:40;;;;;;;5.18;2.50;;;11.70;99.90;;;;;;5054201;28;20048;-82
2022/12/01 03:52:27;;;;;;;3.90;2.63;;;11.70;99.90;;;;;;5072158;28;20040;-82
2022/12/01 03:55:19;;;;;;;4.30;2.67;;;11.70;99.90;;;;;;5072393;28;20042;-82
2022/12/01 03:57:51;;;;;;;3.20;2.20;;;11.70;99.90;;;;;;5072933;28;20093;-82
2022/12/01 04:00:19;;;;;;;4.13;2.03;;;11.70;99.90;;;;;;5072932;28;20044;-81
2022/12/01 04:02:45;;;;;;;5.97;2.55;;;11.60;99.90;;;;;;5072831;28;20388;-81
2022/12/01 04:05:18;;;;;;;4.70;2.00;;;11.60;99.90;;;;;;5072518;28;20111;-82
2022/12/01 04:07:47;;;;;;;3.72;1.90;;;11.60;99.90;;;;;;5073308;28;20020;-80
2022/12/01 04:10:15;;;;;;;3.53;2.20;;;11.50;99.90;;;;;;5054904;28;20148;-82
2022/12/01 04:12:44;;;;;;;3.28;2.05;;;11.50;99.90;;;;;;5054624;28;20104;-80
2022/12/01 04:15:13;;;;;;;4.07;2.10;;;11.50;99.90;;;;;;5073256;28;20435;-81
2022/12/01 04:17:45;;;;;;;6.82;2.33;;;11.50;99.90;;;;;;5073246;28;20032;-81
2022/12/01 04:20:16;;;;;;;2.95;1.90;;;11.50;99.90;;;;;;5072465;28;20421;-82
2022/12/01 04:22:44;;;;;;;3.67;2.20;;;11.50;99.90;;;;;;5072989;28;20410;-81
2022/12/01 04:25:11;;;;;;;3.85;1.92;;;11.50;99.90;;;;;;5072693;28;20028;-82
2022/12/01 04:27:47;;;;;;;3.72;1.80;;;11.50;99.90;;;;;;5072709;28;20032;-81
2022/12/01 04:30:15;;;;;;;4.88;3.05;;;11.50;99.90;;;;;;5072747;28;20504;-81
2022/12/01 04:32:42;;;;;;;3.75;1.75;;;11.50;99.90;;;;;;5073356;28;20020;-81
2022/12/01 04:35:11;;;;;;;4.47;2.05;;;11.50;99.90;;;;;;5072420;28;20056;-81
2022/12/01 04:37:38;;;;;;;3.63;1.92;;;11.40;99.90;;;;;;5053982;28;20028;-82
2022/12/01 04:40:05;;;;;;;3.20;1.90;;;11.40;99.90;;;;;;5072926;28;20078;-81
2022/12/01 04:42:31;;;;;;;4.22;2.10;;;11.40;99.90;;;;;;5072347;28;20358;-82
2022/12/01 04:45:18;;;;;;;3.93;1.90;;;11.30;99.90;;;;;;5072340;28;20029;-82
2022/12/01 04:47:45;;;;;;;3.05;1.95;;;11.30;99.90;;;;;;5072345;28;20040;-81
2022/12/01 04:50:13;;;;;;;5.75;2.13;;;11.30;99.90;;;;;;5072291;28;20089;-82
2022/12/01 04:52:39;;;;;;;3.80;2.10;;;11.30;99.90;;;;;;5072298;28;20459;-81
2022/12/01 04:55:09;;;;;;;3.00;1.93;;;11.20;99.90;;;;;;5054238;28;20020;-83
2022/12/01 04:57:35;;;;;;;3.75;2.20;;;11.20;99.90;;;;;;5054066;28;20025;-81
2022/12/01 05:00:11;;;;;;;3.63;2.03;;;11.10;99.90;;;;;;5072302;28;20103;-82
2022/12/01 05:02:42;;;;;;;3.45;2.25;;;11.20;99.90;;;;;;5072244;28;20139;-81
2022/12/01 05:05:09;;;;;;;5.15;2.50;;;11.10;99.90;;;;;;5073641;28;20036;-82
2022/12/01 05:07:36;;;;;;;4.90;2.50;;;11.10;99.90;;;;;;5073797;28;20024;-81
2022/12/01 05:10:04;;;;;;;4.88;2.60;;;11.10;99.90;;;;;;5087378;28;20035;-81
2022/12/01 05:12:30;;;;;;;4.30;2.67;;;11.10;99.90;;;;;;5084416;28;20028;-82
2022/12/01 05:14:58;;;;;;;5.63;2.77;;;11.10;99.90;;;;;;5072215;28;20434;-81
2022/12/01 05:17:24;;;;;;;6.15;2.97;;;11.00;99.90;;;;;;5072138;28;20112;-81
2022/12/01 05:22:34;;;;;;;7.75;2.97;;;11.00;99.90;;;;;;5064007;28;20044;-81
2022/12/01 05:25:01;;;;;;;5.68;2.67;;;11.00;99.90;;;;;;5073167;28;20465;-81
2022/12/01 05:27:27;;;;;;;5.40;3.03;;;11.00;99.90;;;;;;5080602;28;20017;-81
2022/12/01 05:29:53;;;;;;;7.18;2.92;;;10.90;99.90;;;;;;5082510;28;20028;-81
2022/12/01 05:32:23;;;;;;;7.70;3.20;;;10.90;99.90;;;;;;5083451;28;20077;-80
2022/12/01 05:35:21;;;;;;;5.72;3.22;;;11.00;99.90;;;;;;5075671;28;20106;-82
2022/12/01 05:37:50;;;;;;;9.18;2.90;;;11.00;99.90;;;;;;5073303;28;20091;-81
2022/12/01 05:40:16;;;;;;;6.43;3.80;;;10.90;99.90;;;;;;5074589;28;20056;-82
2022/12/01 05:42:42;;;;;;;5.32;3.03;;;10.90;99.90;;;;;;5076547;28;20021;-80
2022/12/01 05:45:09;;;;;;;5.43;3.27;;;10.90;99.90;;;;;;5076893;28;20075;-81
2022/12/01 05:47:40;;;;;;;6.07;3.35;;;10.90;99.90;;;;;;5076385;28;20044;-81
2022/12/01 05:50:07;;;;;;;5.32;3.45;;;10.90;99.90;;;;;;5059190;28;20037;-81
2022/12/01 05:52:34;;;;;;;6.25;3.55;;;10.80;99.90;;;;;;5061562;28;20021;-81
2022/12/01 05:55:02;;;;;;;8.23;3.60;;;10.80;99.90;;;;;;5085821;28;20020;-80
2022/12/01 05:57:32;;;;;;;5.90;3.15;;;10.80;99.90;;;;;;5080930;28;20042;-82
2022/12/01 05:59:59;;;;;;;7.40;3.47;;;10.80;99.90;;;;;;5080635;28;20035;-78
2022/12/01 06:02:25;;;;;;;6.97;3.42;;;10.70;99.90;;;;;;5081534;28;20026;-81
2022/12/01 06:04:52;;;;;;;5.03;3.07;;;10.70;99.90;;;;;;5084827;28;20168;-81
2022/12/01 06:07:22;;;;;;;6.95;3.33;;;10.70;99.90;;;;;;5083418;28;20528;-77
2022/12/01 06:09:51;;;;;;;6.63;3.78;;;10.80;99.90;;;;;;5083166;28;20070;-82
2022/12/01 06:12:21;;;;;;;6.60;3.30;;;10.80;99.90;;;;;;5064850;28;20383;-82
2022/12/01 06:14:47;;;;;;;6.97;3.38;;;10.80;99.90;;;;;;5075476;28;20036;-83
2022/12/01 06:17:13;;;;;;;10.17;4.30;;;10.90;99.90;;;;;;5075796;28;20107;-83
2022/12/01 06:19:39;;;;;;;11.32;4.20;;;11.00;99.90;;;;;;5075973;28;20159;-83
2022/12/01 06:22:06;;;;;;;6.93;3.58;;;11.40;99.90;;;;;;5075691;28;20028;-83
2022/12/01 06:24:34;;;;;;;7.28;3.40;;;11.80;99.90;;;;;;5075374;28;20041;-84
2022/12/01 06:27:00;;;;;;;6.13;3.28;;;12.40;99.90;;;;;;5057956;28;20033;-83
2022/12/01 06:29:27;;;;;;;7.33;3.70;;;12.70;99.90;;;;;;5075182;28;20027;-83
2022/12/01 06:31:53;;;;;;;6.50;2.83;;;13.30;99.90;;;;;;5074721;28;20042;-83
2022/12/01 06:34:20;;;;;;;6.03;3.20;;;13.90;99.90;;;;;;5075066;28;20021;-84
2022/12/01 06:36:48;;;;;;;4.95;3.10;;;14.30;99.90;;;;;;5074771;28;20101;-84
2022/12/01 06:39:16;;;;;;;7.97;2.88;;;14.80;99.90;;;;;;5056496;28;20521;-83
2022/12/01 06:41:42;;;;;;;8.05;3.22;;;15.00;99.90;;;;;;5074848;28;20123;-84
2022/12/01 06:44:09;;;;;;;6.57;3.08;;;15.60;99.90;;;;;;5061096;28;20040;-83
2022/12/01 06:46:35;;;;;;;;;;;16.30;99.90;;;;;;5062409;28;20108;-84
2022/12/01 06:49:04;;;;;;;7.25;2.90;;;17.10;99.90;;;;;;5083181;28;19994;-82
2022/12/01 06:51:33;;;;;;;5.50;2.90;;;17.90;99.90;;;;;;5084057;28;20874;-83
2022/12/01 06:53:59;;;;;;;6.28;2.97;;;18.50;99.90;;;;;;5068519;28;20026;-82
2022/12/01 06:56:27;;;;;;;6.45;3.08;;;18.90;99.90;;;;;;5095613;28;20058;-84
2022/12/01 06:58:53;;;;;;;7.07;2.95;;;18.70;99.90;;;;;;5095245;28;20165;-83
2022/12/01 07:01:19;;;;;;;7.40;2.58;;;18.90;99.90;;;;;;5075971;28;20035;-82
2022/12/01 07:03:53;;;;;;;6.28;2.60;;;19.20;99.90;;;;;;5075940;28;20028;-81
2022/12/01 07:06:19;;;;;;;4.57;2.88;;;19.10;99.90;;;;;;5095034;28;20054;-83
2022/12/01 07:08:45;;;;;;;5.93;2.58;;;19.20;99.90;;;;;;5075857;28;20021;-82
2022/12/01 07:11:14;;;;;;;3.97;2.50;;;19.00;99.90;;;;;;5076615;28;20123;-82
2022/12/01 07:13:41;;;;;;;5.13;2.47;;;19.00;99.90;;;;;;5084030;28;20028;-82
2022/12/01 07:16:08;;;;;;;5.38;2.40;;;18.70;99.90;;;;;;5074003;28;20035;-81
2022/12/01 07:18:35;;;;;;;4.50;2.58;;;18.70;99.90;;;;;;5074055;28;20025;-82
2022/12/01 07:21:10;;;;;;;5.22;2.58;;;19.00;99.90;;;;;;5056645;28;20040;-82
2022/12/01 07:23:36;;;;;;;4.88;2.50;;;19.10;99.90;;;;;;5074474;28;20151;-82
2022/12/01 07:26:10;;;;;;;5.35;2.40;;;19.40;99.90;;;;;;5074350;28;20033;-78
2022/12/01 07:28:45;;;;;;;4.05;2.30;;;19.60;99.90;;;;;;5074703;28;20024;-83
2022/12/01 07:31:17;;;;;;;5.45;2.40;;;19.50;99.90;;;;;;5074767;28;20032;-83
2022/12/01 07:33:44;;;;;;;6.22;2.38;;;19.40;99.90;;;;;;5074456;28;20028;-83
2022/12/01 07:36:21;;;;;;;6.15;2.47;;;19.00;99.90;;;;;;5074267;28;20044;-83
2022/12/01 07:38:47;;;;;;;4.03;2.45;;;18.50;99.90;;;;;;5074739;28;20037;-83
2022/12/01 07:41:17;;;;;;;6.05;2.70;;;17.80;99.90;;;;;;5056344;28;20020;-84
2022/12/01 07:43:45;;;;;;;5.10;2.65;;;17.60;99.90;;;;;;5073836;28;20036;-83
2022/12/01 07:46:20;;;;;;;7.53;2.60;;;17.30;99.90;;;;;;5074511;28;20457;-82
2022/12/01 07:48:47;;;;;;;5.80;2.85;;;17.10;99.90;;;;;;5074127;28;20028;-83
2022/12/01 07:51:15;;;;;;;4.95;2.70;;;17.00;99.90;;;;;;5073487;28;20016;-83
2022/12/01 07:53:46;;;;;;;6.43;3.63;;;17.00;99.90;;;;;;5055539;28;20078;-83
2022/12/01 07:56:13;;;;;;;7.75;3.45;;;17.10;99.90;;;;;;5072963;28;20089;-82
2022/12/01 07:58:39;;;;;;;11.60;3.58;;;17.10;99.90;;;;;;5055332;28;20082;-81
2022/12/01 08:01:11;;;;;;;10.13;3.40;;;17.00;99.90;;;;;;5073732;28;20028;-84
2022/12/01 08:03:38;;;;;;;9.90;3.55;;;16.80;99.90;;;;;;5072860;28;20431;-83
2022/12/01 08:06:06;;;;;;;6.30;3.13;;;16.60;99.90;;;;;;5073031;28;20039;-81
2022/12/01 08:08:36;;;;;;;7.40;3.45;;;16.40;99.90;;;;;;5054977;28;20468;-83
2022/12/01 08:11:06;;;;;;;7.78;3.70;;;16.40;99.90;;;;;;5038328;28;20051;-83
2022/12/01 08:13:33;;;;;;;4.75;2.88;;;16.60;99.90;;;;;;5072944;28;20032;-84
2022/12/01 08:16:06;;;;;;;9.48;3.35;;;16.80;99.90;;;;;;5073237;28;20119;-83
2022/12/01 08:18:39;;;;;;;6.25;3.38;;;17.00;99.90;;;;;;5072945;28;20029;-83
2022/12/01 08:21:10;;;;;;;5.57;3.25;;;17.00;99.90;;;;;;5073296;28;20029;-83
2022/12/01 08:23:36;;;;;;;4.93;3.20;;;16.80;99.90;;;;;;5073540;28;20028;-84
2022/12/01 08:26:06;;;;;;;7.50;3.63;;;16.70;99.90;;;;;;5073174;28;20111;-84
2022/12/01 08:28:35;;;;;;;11.07;3.72;;;16.90;99.90;;;;;;5084792;22;20057;-83
2022/12/01 08:31:16;;;;;;;5.38;3.20;;;17.00;99.90;;;;;;5053416;28;20551;-84
2022/12/01 08:33:52;;;;;;;5.15;3.20;;;17.10;99.90;;;;;;5053819;28;20462;-85
2022/12/01 08:36:19;;;;;;;6.47;3.13;;;17.20;99.90;;;;;;5053932;28;20017;-83
2022/12/01 08:38:52;;;;;;;7.07;3.58;;;17.00;99.90;;;;;;5052246;28;20111;-83
2022/12/01 08:41:19;;;;;;;6.45;3.38;;;17.00;99.90;;;;;;5052771;28;20078;-83
2022/12/01 08:43:46;;;;;;;7.68;2.97;;;17.10;99.90;;;;;;5023799;28;20124;-83
2022/12/01 08:46:14;;;;;;;6.15;3.22;;;17.10;99.90;;;;;;5014454;28;20447;-83
2022/12/01 08:48:41;;;;;;;9.02;3.00;;;17.20;99.90;;;;;;5014474;28;20167;-83
2022/12/01 08:51:12;;;;;;;6.20;3.13;;;17.20;99.90;;;;;;5032757;28;20032;-84
2022/12/01 08:53:42;;;;;;;11.00;3.50;;;17.30;99.90;;;;;;5014756;28;20029;-84
2022/12/01 08:56:23;;;;;;;6.45;3.22;;;17.30;99.90;;;;;;5015313;28;20038;-84
2022/12/01 08:58:50;;;;;;;9.20;5.75;;;17.50;99.90;;;;;;5032395;28;20041;-83
2022/12/01 09:01:19;;;;;;;8.23;4.13;;;17.70;99.90;;;;;;5032050;28;20026;-83
2022/12/01 09:03:46;;;;;;;7.28;3.58;;;17.90;99.90;;;;;;5032375;28;20044;-82
2022/12/01 09:06:15;;;;;;;9.60;4.35;;;18.00;99.90;;;;;;5032545;28;20481;-83
2022/12/01 09:08:42;;;;;;;10.63;3.83;;;18.20;99.90;;;;;;5014605;28;20494;-83
2022/12/01 09:11:17;;;;;;;9.60;3.80;;;18.20;99.90;;;;;;5015405;28;20021;-84
2022/12/01 09:13:48;;;;;;;7.55;4.00;;;18.10;99.90;;;;;;5033477;28;20155;-83
2022/12/01 09:16:16;;;;;;;9.65;4.30;;;18.20;99.90;;;;;;5037127;28;20056;-83
2022/12/01 09:18:45;;;;;;;8.85;3.45;;;18.40;99.90;;;;;;5044690;28;20056;-83
2022/12/01 09:21:19;;;;;;;6.10;3.33;;;18.50;99.90;;;;;;5057985;28;20025;-82
2022/12/01 09:23:46;;;;;;;4.90;3.10;;;18.50;99.90;;;;;;5051873;28;20056;-82
2022/12/01 09:26:17;;;;;;;7.95;3.40;;;18.50;99.90;;;;;;5037377;28;20032;-82
2022/12/01 09:28:46;;;;;;;7.10;3.05;;;18.70;99.90;;;;;;5036710;28;20064;-83
2022/12/01 09:31:19;;;;;;;5.82;3.17;;;18.70;99.90;;;;;;5036968;28;20033;-82
2022/12/01 09:33:45;;;;;;;6.68;3.30;;;18.80;99.90;;;;;;5036886;28;20021;-82
2022/12/01 09:36:13;;;;;;;6.18;3.40;;;18.40;99.90;;;;;;5036648;28;20371;-81
2022/12/01 09:38:41;;;;;;;7.72;3.00;;;18.50;99.90;;;;;;5036486;28;20044;-83
2022/12/01 09:41:28;;;;;;;7.25;3.33;;;18.40;99.90;;;;;;5036735;28;20359;-82
2022/12/01 09:44:13;;;;;;;5.97;3.22;;;18.40;99.90;;;;;;5036385;28;20026;-83
2022/12/01 09:46:47;;;;;;;6.60;3.08;;;18.50;99.90;;;;;;5018432;28;20373;-82
2022/12/01 09:49:35;;;;;;;7.78;3.00;;;18.50;99.90;;;;;;5019144;28;20374;-82
2022/12/01 09:52:01;;;;;;;4.28;2.85;;;18.50;99.90;;;;;;5017713;28;20095;-83
2022/12/01 09:54:28;;;;;;;7.82;3.05;;;18.60;99.90;;;;;;5035459;28;20394;-80
2022/12/01 09:56:54;;;;;;;;;;;18.70;99.90;;;;;;5036227;28;20101;-82
2022/12/01 09:59:34;;;;;;;7.13;3.35;;;18.70;99.90;;;;;;5035725;28;20074;-81
2022/12/01 10:02:25;;;;;;;5.10;3.15;;;18.70;99.90;;;;;;5034995;28;20076;-82
2022/12/01 10:04:56;;;;;;;4.57;2.60;;;18.70;99.90;;;;;;5035555;28;20044;-83
2022/12/01 10:07:29;;;;;;;5.22;3.10;;;18.70;99.90;;;;;;5035537;28;20018;-82
2022/12/01 10:10:06;;;;;;;5.13;2.80;;;18.70;99.90;;;;;;5036289;28;20026;-81
2022/12/01 10:12:42;;;;;;;6.45;3.20;;;18.30;99.90;;;;;;5035835;28;20033;-81
2022/12/01 10:15:30;;;;;;;7.75;2.60;;;18.50;99.90;;;;;;5035641;28;20025;-81
2022/12/01 10:18:14;;;;;;;5.63;2.83;;;18.60;99.90;;;;;;5035756;28;20017;-81
2022/12/01 10:21:13;;;;;;;6.35;2.85;;;18.60;99.90;;;;;;5036153;28;20048;-82
2022/12/01 10:23:56;;;;;;;6.82;2.65;;;18.50;99.90;;;;;;4983076;28;20072;-81
2022/12/01 10:26:50;;;;;;;10.27;2.45;;;18.70;99.90;;;;;;5018462;28;20528;-82
2022/12/01 10:29:22;;;;;;;5.47;2.30;;;18.80;99.90;;;;;;5026309;28;20284;-82
2022/12/01 10:31:51;;;;;;;6.28;2.78;;;18.90;99.90;;;;;;5055065;28;20126;-82
2022/12/01 10:34:29;;;;;;;5.45;3.13;;;18.70;99.90;;;;;;5054771;28;20053;-81
2022/12/01 10:36:56;;;;;;;10.63;2.90;;;18.80;99.90;;;;;;5052679;28;20029;-82
2022/12/01 10:39:29;;;;;;;;;;;18.70;99.90;;;;;;5055175;28;20331;-81
2022/12/01 10:42:16;;;;;;;4.07;2.40;;;18.60;99.90;;;;;;5034727;28;19905;-81
2022/12/01 10:44:44;;;;;;;4.82;2.55;;;18.90;99.90;;;;;;5046516;28;20094;-81
2022/12/01 10:47:19;;;;;;;4.53;2.60;;;19.00;99.90;;;;;;5054601;28;20025;-82
2022/12/01 10:49:47;;;;;;;5.05;2.70;;;19.10;99.90;;;;;;5054620;28;20075;-82
2022/12/01 10:52:33;;;;;;;4.07;2.50;;;19.10;99.90;;;;;;5036265;28;20083;-81
2022/12/01 10:55:00;;;;;;;4.88;2.30;;;19.20;99.90;;;;;;5036493;28;20090;-82
2022/12/01 10:57:29;;;;;;;8.02;4.82;;;19.30;99.90;;;;;;5054382;28;20033;-79
2022/12/01 11:00:07;;;;;;;7.35;2.55;;;19.40;99.90;;;;;;5054305;28;20464;-82
2022/12/01 11:02:35;;;;;;;3.97;2.30;;;19.50;99.90;;;;;;5054900;28;20037;-82
2022/12/01 11:05:18;;;;;;;4.90;2.50;;;19.50;99.90;;;;;;5019663;28;20448;-81
2022/12/01 11:07:46;;;;;;;3.67;2.38;;;19.60;99.90;;;;;;5053920;28;20025;-82
2022/12/01 11:10:34;;;;;;;4.80;2.50;;;19.60;99.90;;;;;;5035719;28;20028;-81
2022/12/01 11:13:24;;;;;;;3.45;2.22;;;19.60;99.90;;;;;;5053946;28;20075;-81
2022/12/01 11:15:53;;;;;;;5.03;2.75;;;19.70;99.90;;;;;;5053903;28;20039;-81
2022/12/01 11:18:22;;;;;;;4.75;2.20;;;19.90;99.90;;;;;;5053215;28;20439;-82
2022/12/01 11:21:08;;;;;;;4.75;2.60;;;19.90;99.90;;;;;;5053955;28;20041;-81
2022/12/01 11:23:45;;;;;;;5.10;2.65;;;19.90;99.90;;;;;;5054395;28;20118;-81
2022/12/01 11:26:14;;;;;;;5.57;2.40;;;19.40;99.90;;;;;;5054443;28;20449;-81
2022/12/01 11:28:51;;;;;;;4.38;2.20;;;19.30;99.90;;;;;;5032220;28;20183;-82
2022/12/01 11:31:18;;;;;;;4.75;2.30;;;19.30;99.90;;;;;;5033511;28;20064;-82
2022/12/01 11:33:54;;;;;;;4.65;2.28;;;19.20;99.90;;;;;;5034114;28;20021;-82
2022/12/01 11:36:25;;;;;;;3.38;2.03;;;19.20;99.90;;;;;;5033814;28;20421;-82
2022/12/01 11:38:58;;;;;;;5.90;2.40;;;19.30;99.90;;;;;;5032994;28;20018;-83
2022/12/01 11:41:41;;;;;;;5.47;2.35;;;19.50;99.90;;;;;;5033795;28;20068;-82
2022/12/01 11:44:19;;;;;;;4.45;2.38;;;19.30;99.90;;;;;;5033531;28;20434;-82
2022/12/01 11:46:46;;;;;;;4.85;2.33;;;18.90;99.90;;;;;;5033481;28;20474;-82
2022/12/01 11:49:23;;;;;;;4.18;1.90;;;19.00;99.90;;;;;;5033409;28;20026;-82
2022/12/01 11:51:50;;;;;;;5.45;2.25;;;18.90;99.90;;;;;;5033286;28;20040;-83
2022/12/01 11:54:25;;;;;;;4.70;2.28;;;19.10;99.90;;;;;;5032361;28;20033;-83
2022/12/01 11:56:53;;;;;;;6.10;2.30;;;19.20;99.90;;;;;;5034044;28;20021;-82
2022/12/01 11:59:24;;;;;;;5.18;2.38;;;19.40;99.90;;;;;;5033991;28;20467;-82
2022/12/01 12:02:16;;;;;;;5.65;2.60;;;19.60;99.90;;;;;;5033335;28;20033;-82
2022/12/01 12:05:05;;;;;;;3.70;2.10;;;19.50;99.90;;;;;;5032669;28;20037;-82
2022/12/01 12:08:07;;;;;;;4.10;2.22;;;19.70;99.90;;;;;;5033390;28;20037;-83
2022/12/01 12:10:51;;;;;;;5.05;2.33;;;19.80;99.90;;;;;;5032233;28;20048;-83
2022/12/01 12:13:59;;;;;;;4.22;2.20;;;19.80;99.90;;;;;;5033472;28;20029;-83
2022/12/01 12:17:05;;;;;;;4.18;2.22;;;20.00;99.90;;;;;;5033397;28;20022;-83
2022/12/01 12:20:08;;;;;;;6.43;2.55;;;19.70;99.90;;;;;;5033908;28;20374;-83
2022/12/01 12:22:58;;;;;;;4.07;2.50;;;19.60;99.90;;;;;;5033871;28;20108;-82
2022/12/01 12:25:42;;;;;;;4.05;2.70;;;19.50;99.90;;;;;;5012329;28;20478;-83
2022/12/01 12:28:28;;;;;;;5.35;2.70;;;19.40;99.90;;;;;;5012099;28;20045;-83
2022/12/01 12:31:22;;;;;;;3.47;2.50;;;19.50;99.90;;;;;;5013651;28;20042;-83
2022/12/01 12:34:42;;;;;;;5.57;2.70;;;19.70;99.90;;;;;;5013605;28;20045;-83
2022/12/01 12:37:24;;;;;;;4.60;2.83;;;19.60;99.90;;;;;;4933933;29;20039;-79
2022/12/01 12:40:08;;;;;;;5.05;2.80;;;19.50;99.90;;;;;;5005732;28;20041;-84
2022/12/01 12:42:52;;;;;;;5.85;2.97;;;19.50;99.90;;;;;;5013955;28;20054;-84
2022/12/01 12:46:02;;;;;;;5.70;2.97;;;19.50;99.90;;;;;;5012132;28;20133;-82
2022/12/01 12:49:03;;;;;;;5.88;3.10;;;19.40;99.90;;;;;;5002219;28;20048;-81
2022/12/01 12:51:48;;;;;;;6.55;2.80;;;19.40;99.90;;;;;;5030189;28;20025;-74
2022/12/01 12:54:53;;;;;;;6.40;2.47;;;19.40;99.90;;;;;;5045807;23;20084;-75
2022/12/01 12:57:45;;;;;;;7.32;3.20;;;19.30;99.90;;;;;;5052495;28;20047;-77
2022/12/01 13:00:22;;;;;;;5.05;3.15;;;19.00;99.90;;;;;;5052382;28;20028;-72
2022/12/01 13:02:53;;;;;;;5.10;3.03;;;18.80;99.90;;;;;;5052098;28;20025;-76
2022/12/01 13:05:44;;;;;;;5.78;2.95;;;18.70;99.90;;;;;;5077178;22;20049;-73
2022/12/01 13:10:52;;;;;;;5.30;3.15;;;18.90;99.90;;;;;;5042987;22;20193;-75
2022/12/01 13:13:33;;;;;;;4.60;2.40;;;19.00;99.90;;;;;;5072194;28;20025;-76
2022/12/01 13:16:01;;;;;;;4.97;2.42;;;19.10;99.90;;;;;;5054329;28;20047;-76
2022/12/01 13:18:39;;;;;;;5.10;2.60;;;19.10;99.90;;;;;;5073068;28;20369;-76
2022/12/01 13:21:09;;;;;;;4.93;2.38;;;19.10;99.90;;;;;;5054370;28;20035;-75
2022/12/01 13:23:37;;;;;;;4.95;2.38;;;19.00;99.90;;;;;;5072368;28;20022;-76
2022/12/01 13:26:08;;;;;;;8.07;2.47;;;18.80;99.90;;;;;;5072351;28;20029;-75
2022/12/01 13:28:43;;;;;;;4.25;2.58;;;18.70;99.90;;;;;;5072807;28;20055;-75